createdAt,value
2022-10-15T00:00:43.793Z,61.00
2022-10-15T00:03:10.660Z,58.37
2022-10-15T00:05:38.320Z,57.13
2022-10-15T00:08:07.901Z,61.77
2022-10-15T00:10:34.943Z,58.13
2022-10-15T00:15:33.419Z,62.43
2022-10-15T00:18:00.129Z,60.37
2022-10-15T00:20:29.065Z,62.60
2022-10-15T00:22:55.869Z,61.13
2022-10-15T00:25:22.830Z,59.90
2022-10-15T00:27:52.021Z,59.43
2022-10-15T00:30:18.929Z,60.90
2022-10-15T00:32:45.704Z,64.63
2022-10-15T00:35:14.975Z,61.67
2022-10-15T00:37:44.857Z,63.90
2022-10-15T00:40:14.922Z,62.93
2022-10-15T00:42:41.804Z,60.00
2022-10-15T00:45:14.897Z,66.47
2022-10-15T00:47:46.332Z,61.37
2022-10-15T00:50:19.684Z,61.63
2022-10-15T00:52:47.957Z,57.13
2022-10-15T00:55:24.482Z,61.50
2022-10-15T00:57:51.370Z,62.87
2022-10-15T01:00:18.618Z,62.97
2022-10-15T01:02:50.420Z,66.17
2022-10-15T01:05:17.731Z,64.30
2022-10-15T01:07:44.472Z,64.63
2022-10-15T01:10:11.419Z,58.20
2022-10-15T01:12:47.124Z,62.90
2022-10-15T01:15:37.597Z,62.23
2022-10-15T01:18:15.245Z,64.20
2022-10-15T01:20:54.037Z,60.00
2022-10-15T01:23:30.025Z,60.20
2022-10-15T01:26:25.739Z,61.97
2022-10-15T01:29:14.406Z,62.50
2022-10-15T01:32:01.450Z,59.30
2022-10-15T01:34:35.726Z,59.87
2022-10-15T01:37:26.317Z,60.67
2022-10-15T01:40:21.073Z,65.07
2022-10-15T01:42:53.775Z,65.43
2022-10-15T01:45:27.133Z,61.33
2022-10-15T01:47:56.121Z,65.97
2022-10-15T01:50:26.157Z,57.63
2022-10-15T01:52:55.919Z,64.63
2022-10-15T01:55:24.778Z,64.30
2022-10-15T01:57:51.568Z,64.23
2022-10-15T02:00:18.977Z,65.73
2022-10-15T02:02:45.698Z,68.63
2022-10-15T02:05:27.845Z,63.90
2022-10-15T02:08:26.037Z,59.27
2022-10-15T02:10:54.675Z,61.57
2022-10-15T02:13:25.434Z,62.47
2022-10-15T02:16:09.558Z,61.20
2022-10-15T02:19:12.200Z,61.53
2022-10-15T02:21:51.697Z,60.97
2022-10-15T02:24:20.278Z,61.77
2022-10-15T02:26:47.024Z,63.83
2022-10-15T02:31:44.260Z,64.53
2022-10-15T02:34:12.723Z,67.57
2022-10-15T02:36:39.729Z,65.80
2022-10-15T02:39:06.495Z,60.30
2022-10-15T02:41:37.531Z,65.50
2022-10-15T02:44:06.928Z,62.57
2022-10-15T02:46:35.820Z,64.70
2022-10-15T02:49:02.770Z,61.03
2022-10-15T02:51:32.489Z,60.80
2022-10-15T02:54:00.491Z,60.43
2022-10-15T02:56:27.711Z,60.33
2022-10-15T02:58:56.864Z,64.90
2022-10-15T03:01:23.715Z,64.27
2022-10-15T03:03:50.931Z,60.47
2022-10-15T03:06:17.702Z,58.97
2022-10-15T03:08:47.051Z,57.17
2022-10-15T03:11:14.596Z,57.37
2022-10-15T03:13:46.201Z,64.90
2022-10-15T03:16:15.207Z,62.00
2022-10-15T03:18:41.916Z,59.60
2022-10-15T03:21:08.724Z,58.17
2022-10-15T03:23:37.777Z,60.30
2022-10-15T03:26:06.740Z,58.73
2022-10-15T03:28:36.107Z,59.67
2022-10-15T03:31:05.531Z,59.43
2022-10-15T03:33:34.679Z,59.77
2022-10-15T03:36:01.438Z,58.17
2022-10-15T03:38:28.250Z,58.17
2022-10-15T03:40:54.978Z,57.57
2022-10-15T03:43:26.906Z,59.30
2022-10-15T03:45:55.901Z,58.20
2022-10-15T03:48:25.590Z,59.10
2022-10-15T03:50:52.309Z,66.17
2022-10-15T03:53:19.217Z,56.80
2022-10-15T03:55:48.375Z,58.63
2022-10-15T03:58:17.422Z,55.73
2022-10-15T04:00:44.953Z,58.67
2022-10-15T04:03:11.779Z,55.67
2022-10-15T04:05:41.054Z,55.47
2022-10-15T04:08:07.853Z,54.17
2022-10-15T04:10:34.837Z,57.37
2022-10-15T04:13:01.570Z,55.83
2022-10-15T04:15:28.399Z,56.37
2022-10-15T04:17:57.690Z,59.40
2022-10-15T04:20:26.986Z,57.67
2022-10-15T04:22:55.891Z,59.17
2022-10-15T04:25:22.645Z,60.47
2022-10-15T04:27:49.379Z,55.53
2022-10-15T04:30:16.208Z,57.07
2022-10-15T04:32:43.088Z,52.07
2022-10-15T04:35:09.862Z,50.70
2022-10-15T04:37:39.249Z,53.20
2022-10-15T04:40:06.665Z,55.47
2022-10-15T04:42:33.413Z,52.30
2022-10-15T04:45:02.424Z,53.87
2022-10-15T04:47:29.174Z,51.00
2022-10-15T04:49:55.938Z,58.20
2022-10-15T04:52:25.724Z,53.97
2022-10-15T04:54:54.691Z,59.80
2022-10-15T04:57:22.278Z,55.63
2022-10-15T04:59:52.577Z,55.33
2022-10-15T05:02:22.229Z,55.07
2022-10-15T05:04:49.055Z,54.97
2022-10-15T05:07:18.184Z,55.57
2022-10-15T05:09:47.548Z,57.47
2022-10-15T05:12:19.142Z,55.27
2022-10-15T05:14:48.416Z,54.20
2022-10-15T05:17:15.146Z,54.57
2022-10-15T05:19:41.918Z,53.10
2022-10-15T05:22:08.637Z,65.27
2022-10-15T05:24:35.445Z,56.07
2022-10-15T05:27:03.172Z,59.70
2022-10-15T05:29:30.408Z,61.83
2022-10-15T05:31:57.241Z,58.53
2022-10-15T05:34:24.810Z,51.73
2022-10-15T05:36:51.538Z,55.50
2022-10-15T05:39:20.457Z,52.63
2022-10-15T05:41:47.293Z,52.70
2022-10-15T05:44:14.092Z,58.90
2022-10-15T05:46:40.887Z,56.27
2022-10-15T05:49:10.114Z,55.70
2022-10-15T05:51:37.567Z,53.07
2022-10-15T05:54:06.757Z,54.57
2022-10-15T05:56:33.544Z,54.87
2022-10-15T05:59:03.255Z,53.60
2022-10-15T06:01:34.424Z,61.70
2022-10-15T06:04:01.620Z,58.33
2022-10-15T06:06:30.634Z,55.60
2022-10-15T06:09:01.784Z,57.13
2022-10-15T06:11:28.872Z,53.17
2022-10-15T06:13:55.661Z,57.20
2022-10-15T06:16:24.093Z,57.33
2022-10-15T06:18:54.874Z,55.10
2022-10-15T06:21:23.889Z,50.73
2022-10-15T06:23:52.877Z,53.63
2022-10-15T06:26:19.699Z,54.90
2022-10-15T06:28:46.675Z,56.47
2022-10-15T06:31:13.579Z,58.40
2022-10-15T06:33:40.290Z,51.53
2022-10-15T06:36:11.506Z,55.27
2022-10-15T06:38:39.454Z,53.03
2022-10-15T06:41:07.083Z,57.97
2022-10-15T06:43:38.900Z,49.83
2022-10-15T06:46:10.416Z,51.47
2022-10-15T06:48:39.342Z,49.37
2022-10-15T06:51:06.225Z,52.00
2022-10-15T06:53:35.286Z,48.93
2022-10-15T06:56:02.882Z,51.50
2022-10-15T06:58:31.967Z,52.27
2022-10-15T07:01:06.386Z,53.23
2022-10-15T07:03:36.646Z,50.03
2022-10-15T07:06:04.608Z,51.63
2022-10-15T07:08:33.971Z,49.80
2022-10-15T07:11:05.048Z,44.70
2022-10-15T07:13:31.897Z,51.80
2022-10-15T07:15:58.646Z,44.63
2022-10-15T07:18:27.628Z,45.43
2022-10-15T07:20:54.389Z,45.73
2022-10-15T07:23:26.991Z,44.30
2022-10-15T07:25:56.996Z,53.77
2022-10-15T07:28:23.902Z,48.03
2022-10-15T07:30:50.840Z,43.50
2022-10-15T07:33:20.186Z,42.73
2022-10-15T07:35:46.961Z,43.67
2022-10-15T07:38:13.810Z,48.77
2022-10-15T07:40:40.546Z,45.27
2022-10-15T07:43:09.492Z,41.60
2022-10-15T07:45:36.248Z,46.73
2022-10-15T07:48:03.039Z,47.83
2022-10-15T07:50:35.438Z,45.10
2022-10-15T07:53:06.668Z,44.87
2022-10-15T07:55:33.586Z,42.57
2022-10-15T07:58:00.338Z,42.13
2022-10-15T08:00:29.618Z,44.30
2022-10-15T08:02:56.517Z,44.20
2022-10-15T08:05:25.905Z,44.73
2022-10-15T08:07:52.646Z,45.80
2022-10-15T08:10:19.386Z,43.17
2022-10-15T08:12:48.613Z,43.80
2022-10-15T08:15:15.422Z,44.67
2022-10-15T08:17:42.200Z,41.60
2022-10-15T08:20:09.412Z,45.67
2022-10-15T08:22:38.725Z,43.17
2022-10-15T08:25:05.585Z,44.23
2022-10-15T08:27:32.346Z,44.60
2022-10-15T08:30:02.070Z,43.97
2022-10-15T08:32:28.802Z,43.47
2022-10-15T08:34:58.070Z,39.00
2022-10-15T08:37:24.838Z,44.00
2022-10-15T08:39:51.592Z,45.23
2022-10-15T08:42:26.615Z,46.90
2022-10-15T08:45:01.433Z,44.20
2022-10-15T08:47:36.446Z,45.37
2022-10-15T08:50:24.402Z,43.17
2022-10-15T08:52:51.305Z,43.27
2022-10-15T08:55:19.596Z,42.67
2022-10-15T08:58:08.207Z,41.27
2022-10-15T09:00:50.742Z,46.57
2022-10-15T09:03:54.936Z,44.13
2022-10-15T09:06:26.000Z,43.83
2022-10-15T09:09:13.462Z,41.60
2022-10-15T09:11:49.042Z,43.13
2022-10-15T09:14:18.664Z,46.20
2022-10-15T09:16:48.493Z,40.33
2022-10-15T09:19:22.683Z,41.13
2022-10-15T09:21:52.198Z,41.10
2022-10-15T09:24:24.189Z,42.57
2022-10-15T09:27:14.664Z,41.80
2022-10-15T09:29:47.014Z,41.20
2022-10-15T09:32:31.566Z,42.03
2022-10-15T09:35:15.915Z,41.70
2022-10-15T09:37:57.046Z,39.23
2022-10-15T09:40:37.799Z,41.00
2022-10-15T09:43:07.082Z,39.67
2022-10-15T09:45:34.153Z,39.47
2022-10-15T09:48:01.069Z,39.27
2022-10-15T09:50:35.259Z,40.13
2022-10-15T09:53:26.016Z,37.67
2022-10-15T09:56:06.545Z,39.00
2022-10-15T09:59:04.675Z,36.37
2022-10-15T10:01:36.555Z,33.77
2022-10-15T10:04:19.310Z,35.83
2022-10-15T10:07:02.210Z,37.80
2022-10-15T10:09:35.214Z,41.13
2022-10-15T10:12:06.575Z,35.13
2022-10-15T10:14:58.297Z,35.13
2022-10-15T10:17:28.991Z,33.50
2022-10-15T10:20:15.125Z,39.30
2022-10-15T10:22:51.727Z,35.93
2022-10-15T10:25:39.353Z,33.40
2022-10-15T10:28:08.986Z,36.70
2022-10-15T10:30:51.002Z,35.93
2022-10-15T10:33:25.570Z,32.73
2022-10-15T10:35:52.372Z,39.13
2022-10-15T10:38:31.352Z,32.03
2022-10-15T10:41:07.896Z,33.60
2022-10-15T10:43:39.319Z,34.53
2022-10-15T10:46:15.457Z,36.60
2022-10-15T10:48:46.503Z,34.60
2022-10-15T10:51:19.362Z,32.07
2022-10-15T10:54:08.943Z,39.63
2022-10-15T10:56:37.824Z,31.00
2022-10-15T10:59:14.450Z,32.90
2022-10-15T11:01:41.304Z,30.07
2022-10-15T11:04:18.580Z,27.53
2022-10-15T11:07:03.523Z,32.53
2022-10-15T11:09:44.314Z,25.93
2022-10-15T11:12:29.591Z,29.40
2022-10-15T11:15:19.482Z,29.17
2022-10-15T11:17:46.220Z,27.00
2022-10-15T11:20:59.798Z,32.80
2022-10-15T11:23:38.388Z,26.87
2022-10-15T11:26:21.518Z,29.83
2022-10-15T11:29:16.707Z,24.33
2022-10-15T11:32:15.110Z,27.30
2022-10-15T11:34:52.597Z,22.87
2022-10-15T11:37:56.449Z,24.90
2022-10-15T11:41:00.992Z,28.07
2022-10-15T11:44:05.881Z,29.77
2022-10-15T11:46:46.637Z,21.07
2022-10-15T11:49:25.794Z,24.80
2022-10-15T11:52:07.088Z,23.23
2022-10-15T11:54:36.902Z,26.00
2022-10-15T11:57:04.000Z,26.30
2022-10-15T11:59:38.562Z,21.40
2022-10-15T12:02:29.189Z,21.87
2022-10-15T12:05:35.167Z,24.87
2022-10-15T12:10:48.204Z,24.53
2022-10-15T12:13:17.216Z,25.47
2022-10-15T12:16:00.675Z,28.30
2022-10-15T12:19:09.309Z,21.97
2022-10-15T12:21:40.052Z,27.07
2022-10-15T12:24:52.321Z,23.23
2022-10-15T12:27:19.085Z,26.80
2022-10-15T12:30:06.103Z,21.70
2022-10-15T12:32:46.629Z,22.13
2022-10-15T12:35:16.247Z,21.40
2022-10-15T12:37:49.581Z,21.70
2022-10-15T12:40:25.018Z,25.30
2022-10-15T12:42:59.253Z,25.53
2022-10-15T12:45:40.158Z,23.50
2022-10-15T12:48:13.735Z,20.63
2022-10-15T12:50:42.877Z,24.00
2022-10-15T12:53:28.791Z,22.23
2022-10-15T12:56:11.283Z,19.93
2022-10-15T12:58:39.011Z,23.20
2022-10-15T13:01:14.776Z,21.57
2022-10-15T13:03:52.885Z,20.43
2022-10-15T13:06:22.756Z,22.30
2022-10-15T13:09:09.800Z,23.67
2022-10-15T13:11:46.390Z,23.47
2022-10-15T13:14:31.888Z,24.80
2022-10-15T13:16:59.139Z,20.27
2022-10-15T13:19:37.314Z,27.53
2022-10-15T13:22:07.233Z,23.10
2022-10-15T13:24:45.792Z,26.53
2022-10-15T13:27:37.670Z,24.30
2022-10-15T13:30:09.465Z,25.30
2022-10-15T13:32:38.831Z,23.80
2022-10-15T13:35:21.289Z,24.40
2022-10-15T13:37:48.153Z,21.63
2022-10-15T13:40:25.319Z,23.60
2022-10-15T13:43:06.334Z,25.80
2022-10-15T13:45:33.232Z,22.43
2022-10-15T13:47:59.944Z,28.37
2022-10-15T13:50:34.853Z,28.13
2022-10-15T13:53:07.562Z,22.37
2022-10-15T13:55:39.168Z,21.83
2022-10-15T13:58:22.247Z,20.80
2022-10-15T14:00:55.547Z,25.47
2022-10-15T14:03:24.051Z,26.43
2022-10-15T14:05:52.675Z,22.60
2022-10-15T14:08:26.171Z,27.43
2022-10-15T14:10:57.519Z,24.87
2022-10-15T14:13:24.363Z,25.50
2022-10-15T14:16:14.392Z,22.33
2022-10-15T14:18:52.439Z,19.90
2022-10-15T14:21:21.145Z,21.40
2022-10-15T14:23:48.149Z,22.20
2022-10-15T14:26:16.840Z,20.57
2022-10-15T14:28:43.764Z,25.73
2022-10-15T14:31:10.558Z,22.57
2022-10-15T14:33:37.317Z,22.50
2022-10-15T14:36:34.019Z,23.90
2022-10-15T14:39:39.440Z,22.13
2022-10-15T14:42:07.659Z,24.07
2022-10-15T14:44:45.014Z,24.07
2022-10-15T14:47:19.188Z,23.87
2022-10-15T14:49:46.104Z,23.87
2022-10-15T14:52:16.446Z,23.77
2022-10-15T14:54:47.171Z,23.20
2022-10-15T14:57:37.262Z,22.63
2022-10-15T15:00:22.827Z,25.00
2022-10-15T15:02:49.711Z,23.37
2022-10-15T15:05:18.634Z,21.57
2022-10-15T15:07:45.369Z,24.90
2022-10-15T15:10:14.357Z,24.80
2022-10-15T15:12:43.718Z,24.17
2022-10-15T15:15:20.968Z,24.13
2022-10-15T15:17:48.748Z,25.67
2022-10-15T15:20:17.095Z,22.20
2022-10-15T15:22:43.933Z,24.67
2022-10-15T15:25:17.161Z,25.07
2022-10-15T15:27:46.010Z,22.90
2022-10-15T15:30:31.930Z,24.03
2022-10-15T15:33:00.688Z,27.40
2022-10-15T15:35:32.835Z,29.23
2022-10-15T15:37:59.875Z,25.13
2022-10-15T15:40:28.835Z,25.90
2022-10-15T15:42:56.604Z,27.33
2022-10-15T15:45:27.149Z,23.27
2022-10-15T15:47:58.792Z,25.47
2022-10-15T15:50:25.669Z,25.03
2022-10-15T15:52:52.451Z,25.20
2022-10-15T15:55:21.477Z,24.63
2022-10-15T15:57:48.361Z,24.00
2022-10-15T16:00:19.443Z,21.50
2022-10-15T16:02:46.243Z,23.37
2022-10-15T16:05:14.816Z,23.03
2022-10-15T16:07:42.268Z,26.83
2022-10-15T16:10:11.969Z,27.40
2022-10-15T16:12:41.626Z,26.07
2022-10-15T16:15:11.691Z,30.23
2022-10-15T16:17:41.581Z,26.77
2022-10-15T16:20:09.553Z,25.17
2022-10-15T16:22:36.314Z,26.87
2022-10-15T16:25:05.681Z,26.13
2022-10-15T16:27:34.800Z,25.97
2022-10-15T16:30:04.485Z,28.27
2022-10-15T16:32:35.933Z,27.23
2022-10-15T16:35:02.800Z,30.17
2022-10-15T16:37:29.582Z,26.83
2022-10-15T16:39:58.830Z,28.53
2022-10-15T16:42:25.587Z,24.60
2022-10-15T16:44:53.131Z,33.33
2022-10-15T16:47:21.432Z,28.10
2022-10-15T16:49:50.478Z,34.00
2022-10-15T16:52:20.179Z,29.30
2022-10-15T16:54:49.237Z,29.30
2022-10-15T16:57:16.023Z,27.70
2022-10-15T16:59:44.977Z,27.40
2022-10-15T17:02:11.855Z,31.03
2022-10-15T17:04:38.660Z,26.77
2022-10-15T17:07:05.474Z,31.33
2022-10-15T17:09:32.285Z,32.60
2022-10-15T17:12:01.658Z,33.57
2022-10-15T17:14:30.893Z,30.23
2022-10-15T17:17:02.322Z,30.73
2022-10-15T17:19:31.865Z,31.33
2022-10-15T17:22:00.969Z,31.40
2022-10-15T17:24:32.177Z,34.10
2022-10-15T17:27:01.415Z,33.80
2022-10-15T17:29:32.559Z,33.87
2022-10-15T17:32:03.067Z,29.83
2022-10-15T17:34:32.006Z,33.20
2022-10-15T17:36:58.797Z,37.00
2022-10-15T17:39:25.632Z,37.83
2022-10-15T17:41:54.592Z,33.00
2022-10-15T17:44:21.483Z,35.23
2022-10-15T17:49:18.703Z,36.83
2022-10-15T17:51:47.728Z,37.43
2022-10-15T17:54:14.490Z,39.83
2022-10-15T17:56:46.474Z,38.00
2022-10-15T17:59:13.354Z,38.10
2022-10-15T18:01:57.806Z,35.37
2022-10-15T18:04:26.641Z,35.70
2022-10-15T18:06:53.388Z,38.90
2022-10-15T18:09:22.339Z,36.60
2022-10-15T18:11:49.294Z,34.17
2022-10-15T18:14:16.183Z,36.67
2022-10-15T18:16:43.645Z,38.03
2022-10-15T18:19:10.589Z,38.70
2022-10-15T18:21:39.568Z,41.17
2022-10-15T18:24:06.332Z,40.80
2022-10-15T18:26:33.080Z,38.40
2022-10-15T18:28:59.990Z,40.43
2022-10-15T18:31:26.832Z,37.43
2022-10-15T18:33:58.027Z,35.17
2022-10-15T18:36:27.005Z,34.90
2022-10-15T18:38:54.256Z,36.13
2022-10-15T18:41:28.654Z,41.37
2022-10-15T18:43:59.340Z,39.27
2022-10-15T18:46:29.582Z,34.97
2022-10-15T18:48:59.149Z,38.33
2022-10-15T18:51:26.155Z,38.80
2022-10-15T18:53:53.317Z,37.30
2022-10-15T18:56:20.575Z,36.77
2022-10-15T18:58:47.334Z,45.07
2022-10-15T19:01:28.375Z,36.27
2022-10-15T19:04:05.370Z,36.20
2022-10-15T19:06:35.521Z,37.20
2022-10-15T19:09:03.897Z,34.87
2022-10-15T19:11:31.053Z,39.83
2022-10-15T19:13:58.120Z,33.83
2022-10-15T19:16:24.902Z,35.37
2022-10-15T19:18:51.716Z,33.17
2022-10-15T19:21:20.815Z,39.57
2022-10-15T19:23:47.769Z,35.03
2022-10-15T19:26:17.079Z,40.93
2022-10-15T19:28:43.996Z,34.90
2022-10-15T19:31:13.464Z,36.07
2022-10-15T19:33:40.316Z,34.27
2022-10-15T19:36:09.566Z,36.37
2022-10-15T19:38:36.392Z,35.00
2022-10-15T19:41:04.386Z,33.90
2022-10-15T19:43:33.655Z,36.40
2022-10-15T19:46:05.738Z,38.90
2022-10-15T19:48:32.570Z,35.80
2022-10-15T19:51:01.389Z,32.03
2022-10-15T19:53:31.357Z,35.00
2022-10-15T19:56:02.987Z,37.80
2022-10-15T19:58:32.268Z,34.30
2022-10-15T20:00:59.069Z,31.77
2022-10-15T20:03:26.984Z,38.77
2022-10-15T20:05:53.834Z,37.20
2022-10-15T20:08:23.272Z,37.30
2022-10-15T20:10:53.385Z,36.50
2022-10-15T20:13:21.354Z,31.33
2022-10-15T20:15:49.721Z,37.00
2022-10-15T20:18:16.774Z,34.50
2022-10-15T20:20:45.439Z,32.07
2022-10-15T20:23:14.924Z,37.60
2022-10-15T20:25:42.765Z,34.87
2022-10-15T20:28:10.647Z,30.93
2022-10-15T20:30:38.549Z,35.87
2022-10-15T20:33:05.514Z,32.47
2022-10-15T20:35:34.158Z,34.03
2022-10-15T20:38:03.859Z,33.97
2022-10-15T20:40:30.909Z,31.40
2022-10-15T20:42:59.838Z,28.80
2022-10-15T20:45:30.894Z,36.23
2022-10-15T20:48:00.737Z,31.37
2022-10-15T20:50:30.646Z,29.37
2022-10-15T20:52:57.387Z,28.83
2022-10-15T20:55:24.243Z,34.53
2022-10-15T20:57:51.018Z,37.33
2022-10-15T21:00:17.808Z,30.17
2022-10-15T21:02:44.555Z,29.53
2022-10-15T21:05:11.374Z,32.20
2022-10-15T21:07:38.163Z,29.47
2022-10-15T21:10:07.837Z,28.77
2022-10-15T21:12:34.627Z,31.57
2022-10-15T21:15:04.019Z,28.33
2022-10-15T21:17:33.177Z,26.47
2022-10-15T21:20:02.872Z,26.50
2022-10-15T21:22:29.687Z,30.83
2022-10-15T21:24:56.435Z,27.80
2022-10-15T21:27:23.497Z,27.30
2022-10-15T21:29:50.627Z,26.57
2022-10-15T21:32:17.377Z,35.07
2022-10-15T21:34:44.409Z,25.87
2022-10-15T21:37:11.671Z,29.63
2022-10-15T21:39:38.599Z,30.47
2022-10-15T21:42:05.378Z,28.13
2022-10-15T21:44:33.126Z,24.53
2022-10-15T21:46:59.957Z,24.30
2022-10-15T21:49:29.409Z,22.77
2022-10-15T21:51:56.140Z,22.80
2022-10-15T21:54:22.887Z,22.60
2022-10-15T21:56:49.605Z,26.00
2022-10-15T21:59:16.369Z,24.40
2022-10-15T22:01:45.623Z,21.33
2022-10-15T22:04:12.488Z,26.60
2022-10-15T22:06:42.457Z,24.33
2022-10-15T22:09:11.901Z,24.17
2022-10-15T22:11:42.037Z,23.60
2022-10-15T22:14:13.490Z,23.67
2022-10-15T22:16:42.874Z,24.83
2022-10-15T22:19:13.830Z,20.67
2022-10-15T22:21:42.797Z,23.40
2022-10-15T22:24:21.540Z,26.83
2022-10-15T22:26:50.219Z,25.90
2022-10-15T22:29:21.001Z,23.30
2022-10-15T22:31:52.516Z,22.23
2022-10-15T22:34:19.369Z,24.17
2022-10-15T22:36:46.329Z,21.90
2022-10-15T22:39:15.259Z,21.63
2022-10-15T22:41:47.316Z,25.30
2022-10-15T22:44:18.735Z,24.93
2022-10-15T22:46:49.712Z,23.47
2022-10-15T22:49:20.241Z,26.73
2022-10-15T22:51:49.973Z,24.80
2022-10-15T22:54:17.417Z,24.43
2022-10-15T22:56:45.353Z,26.37
2022-10-15T22:59:14.642Z,26.27
2022-10-15T23:01:41.591Z,23.50
2022-10-15T23:04:10.666Z,21.63
2022-10-15T23:06:37.711Z,22.27
2022-10-15T23:09:07.588Z,21.57
2022-10-15T23:11:38.378Z,24.33
2022-10-15T23:14:13.294Z,22.27
2022-10-15T23:16:41.543Z,22.77
2022-10-15T23:19:12.572Z,24.57
2022-10-15T23:21:50.216Z,20.60
2022-10-15T23:24:18.230Z,23.47
2022-10-15T23:26:47.743Z,24.17
2022-10-15T23:29:24.669Z,25.07
2022-10-15T23:31:51.560Z,22.57
2022-10-15T23:34:23.320Z,23.77
2022-10-15T23:36:52.864Z,22.97
2022-10-15T23:39:24.703Z,20.40
2022-10-15T23:41:54.161Z,22.17
2022-10-15T23:44:21.472Z,22.73
2022-10-15T23:46:48.233Z,18.40
2022-10-15T23:49:17.561Z,20.47
2022-10-15T23:51:44.337Z,17.90
2022-10-15T23:54:16.327Z,16.97
2022-10-15T23:56:43.494Z,19.07
2022-10-15T23:59:12.940Z,26.17
